createdAt,value
2022-07-29T00:00:36.001Z,99513.56
2022-07-29T00:02:08.517Z,99517.06
2022-07-29T00:03:40.850Z,99516.38
2022-07-29T00:05:14.745Z,99516.25
2022-07-29T00:06:46.952Z,99511.88
2022-07-29T00:08:19.725Z,99509.66
2022-07-29T00:09:52.751Z,99521.25
2022-07-29T00:11:25.119Z,99523.94
2022-07-29T00:12:57.396Z,99526.00
2022-07-29T00:14:29.895Z,99521.31
2022-07-29T00:16:04.481Z,99523.56
2022-07-29T00:17:37.377Z,99526.94
2022-07-29T00:19:09.569Z,99529.59
2022-07-29T00:20:43.410Z,99529.69
2022-07-29T00:22:15.678Z,99531.91
2022-07-29T00:23:47.764Z,99535.34
2022-07-29T00:25:20.066Z,99536.84
2022-07-29T00:26:52.507Z,99543.84
2022-07-29T00:28:24.788Z,99537.00
2022-07-29T00:29:56.906Z,99535.94
2022-07-29T00:31:29.079Z,99541.66
2022-07-29T00:33:01.858Z,99535.56
2022-07-29T00:34:52.649Z,99535.63
2022-07-29T00:36:24.824Z,99541.84
2022-07-29T00:37:57.037Z,99538.38
2022-07-29T00:39:29.539Z,99543.97
2022-07-29T00:41:01.847Z,99546.03
2022-07-29T00:42:47.840Z,99544.66
2022-07-29T00:44:20.112Z,99539.09
2022-07-29T00:45:52.562Z,99544.63
2022-07-29T00:47:24.775Z,99536.91
2022-07-29T00:48:56.984Z,99543.66
2022-07-29T00:50:29.275Z,99547.00
2022-07-29T00:52:02.491Z,99545.50
2022-07-29T00:53:35.328Z,99542.66
2022-07-29T00:55:09.207Z,99543.31
2022-07-29T00:56:41.400Z,99532.81
2022-07-29T00:58:14.952Z,99541.66
2022-07-29T00:59:48.260Z,99541.53
2022-07-29T01:01:20.432Z,99538.66
2022-07-29T01:02:52.750Z,99541.28
2022-07-29T01:04:25.365Z,99539.16
2022-07-29T01:05:57.823Z,99534.94
2022-07-29T01:07:31.022Z,99536.22
2022-07-29T01:09:04.364Z,99521.69
2022-07-29T01:10:37.937Z,99524.47
2022-07-29T01:12:14.044Z,99525.69
2022-07-29T01:13:47.065Z,99523.63
2022-07-29T01:15:19.399Z,99522.84
2022-07-29T01:16:51.799Z,99518.78
2022-07-29T01:18:35.089Z,99518.06
2022-07-29T01:20:07.441Z,99523.59
2022-07-29T01:21:39.662Z,99515.84
2022-07-29T01:23:26.938Z,99520.56
2022-07-29T01:25:16.343Z,99517.81
2022-07-29T01:26:48.553Z,99517.13
2022-07-29T01:28:33.495Z,99522.16
2022-07-29T01:30:06.188Z,99513.78
2022-07-29T01:31:53.778Z,99519.25
2022-07-29T01:33:52.084Z,99519.25
2022-07-29T01:35:29.830Z,99523.38
2022-07-29T01:37:13.311Z,99515.22
2022-07-29T01:38:49.654Z,99515.91
2022-07-29T01:40:25.137Z,99522.78
2022-07-29T01:42:00.703Z,99521.94
2022-07-29T01:43:36.778Z,99522.53
2022-07-29T01:45:12.560Z,99518.34
2022-07-29T01:46:47.865Z,99518.34
2022-07-29T01:48:24.595Z,99521.06
2022-07-29T01:49:57.880Z,99516.09
2022-07-29T01:51:32.647Z,99510.47
2022-07-29T01:53:09.880Z,99508.19
2022-07-29T01:54:46.822Z,99512.13
2022-07-29T01:56:20.956Z,99519.66
2022-07-29T01:57:53.622Z,99514.91
2022-07-29T01:59:26.537Z,99517.66
2022-07-29T02:01:00.966Z,99516.22
2022-07-29T02:02:34.087Z,99507.22
2022-07-29T02:04:08.143Z,99507.19
2022-07-29T02:05:42.161Z,99503.09
2022-07-29T02:07:15.418Z,99510.91
2022-07-29T02:08:48.853Z,99513.09
2022-07-29T02:10:25.753Z,99508.41
2022-07-29T02:11:59.767Z,99512.59
2022-07-29T02:13:32.586Z,99517.41
2022-07-29T02:15:06.782Z,99511.81
2022-07-29T02:16:40.302Z,99513.09
2022-07-29T02:18:15.351Z,99513.69
2022-07-29T02:19:48.588Z,99513.59
2022-07-29T02:21:22.506Z,99514.25
2022-07-29T02:22:55.771Z,99509.38
2022-07-29T02:24:29.554Z,99506.63
2022-07-29T02:26:02.178Z,99508.03
2022-07-29T02:27:35.684Z,99510.13
2022-07-29T02:29:10.965Z,99501.81
2022-07-29T02:30:43.887Z,99510.69
2022-07-29T02:32:17.027Z,99508.75
2022-07-29T02:33:49.680Z,99512.25
2022-07-29T02:35:22.952Z,99502.56
2022-07-29T02:36:56.465Z,99503.25
2022-07-29T02:38:48.363Z,99508.16
2022-07-29T02:40:20.511Z,99510.13
2022-07-29T02:42:00.616Z,99505.28
2022-07-29T02:43:35.373Z,99506.63
2022-07-29T02:45:07.784Z,99499.03
2022-07-29T02:46:43.923Z,99506.09
2022-07-29T02:48:17.627Z,99510.25
2022-07-29T02:49:53.590Z,99510.38
2022-07-29T02:51:41.466Z,99511.75
2022-07-29T02:53:19.607Z,99505.53
2022-07-29T02:54:51.724Z,99506.38
2022-07-29T02:56:28.844Z,99502.91
2022-07-29T02:58:02.475Z,99502.91
2022-07-29T02:59:37.551Z,99504.97
2022-07-29T03:01:19.370Z,99500.75
2022-07-29T03:02:54.783Z,99502.81
2022-07-29T03:04:29.494Z,99500.63
2022-07-29T03:06:03.446Z,99504.09
2022-07-29T03:07:36.242Z,99506.28
2022-07-29T03:09:12.933Z,99508.41
2022-07-29T03:10:46.714Z,99511.19
2022-07-29T03:12:19.275Z,99505.56
2022-07-29T03:13:51.914Z,99501.97
2022-07-29T03:15:24.777Z,99503.25
2022-07-29T03:16:57.262Z,99506.56
2022-07-29T03:18:29.736Z,99507.75
2022-07-29T03:20:02.557Z,99508.34
2022-07-29T03:21:35.192Z,99509.53
2022-07-29T03:23:07.627Z,99517.06
2022-07-29T03:24:40.308Z,99513.53
2022-07-29T03:26:13.296Z,99511.31
2022-07-29T03:27:45.538Z,99511.19
2022-07-29T03:29:17.673Z,99515.94
2022-07-29T03:30:52.465Z,99514.53
2022-07-29T03:32:25.342Z,99510.97
2022-07-29T03:33:58.562Z,99513.03
2022-07-29T03:35:32.656Z,99520.03
2022-07-29T03:37:07.080Z,99524.13
2022-07-29T03:38:40.776Z,99520.03
2022-07-29T03:40:17.219Z,99516.63
2022-07-29T03:41:50.753Z,99523.56
2022-07-29T03:43:27.779Z,99515.28
2022-07-29T03:45:01.123Z,99517.47
2022-07-29T03:46:34.854Z,99515.44
2022-07-29T03:48:09.508Z,99525.19
2022-07-29T03:49:42.229Z,99515.81
2022-07-29T03:51:14.593Z,99521.13
2022-07-29T03:52:46.800Z,99519.63
2022-07-29T03:54:19.652Z,99516.50
2022-07-29T03:55:53.866Z,99523.38
2022-07-29T03:57:28.602Z,99516.44
2022-07-29T03:59:01.486Z,99519.06
2022-07-29T04:00:34.728Z,99520.44
2022-07-29T04:02:09.596Z,99527.28
2022-07-29T04:03:41.913Z,99521.13
2022-07-29T04:05:14.490Z,99527.34
2022-07-29T04:06:48.317Z,99526.72
2022-07-29T04:08:21.128Z,99519.13
2022-07-29T04:09:53.312Z,99524.72
2022-07-29T04:11:25.433Z,99533.06
2022-07-29T04:12:57.643Z,99531.78
2022-07-29T04:14:30.126Z,99533.97
2022-07-29T04:16:02.453Z,99535.44
2022-07-29T04:17:34.727Z,99537.56
2022-07-29T04:19:06.929Z,99531.41
2022-07-29T04:20:39.415Z,99539.81
2022-07-29T04:22:11.597Z,99535.75
2022-07-29T04:23:52.968Z,99532.41
2022-07-29T04:25:26.204Z,99534.59
2022-07-29T04:26:58.934Z,99533.41
2022-07-29T04:28:31.107Z,99532.91
2022-07-29T04:30:03.531Z,99534.50
2022-07-29T04:31:35.979Z,99531.94
2022-07-29T04:33:09.046Z,99531.47
2022-07-29T04:34:41.299Z,99536.50
2022-07-29T04:36:28.397Z,99534.38
2022-07-29T04:38:01.924Z,99529.97
2022-07-29T04:39:34.381Z,99520.59
2022-07-29T04:41:07.984Z,99528.25
2022-07-29T04:42:43.972Z,99520.97
2022-07-29T04:44:19.713Z,99526.19
2022-07-29T04:45:52.479Z,99523.25
2022-07-29T04:47:26.998Z,99534.78
2022-07-29T04:48:59.219Z,99539.25
2022-07-29T04:50:31.443Z,99533.13
2022-07-29T04:52:04.013Z,99536.72
2022-07-29T04:53:36.228Z,99538.19
2022-07-29T04:55:08.533Z,99541.69
2022-07-29T04:56:40.711Z,99540.28
2022-07-29T04:58:13.209Z,99536.06
2022-07-29T04:59:45.376Z,99537.47
2022-07-29T05:01:17.602Z,99545.13
2022-07-29T05:02:50.381Z,99533.91
2022-07-29T05:04:24.091Z,99542.16
2022-07-29T05:05:56.350Z,99539.94
2022-07-29T05:07:28.490Z,99537.00
2022-07-29T05:09:00.638Z,99539.63
2022-07-29T05:10:33.689Z,99539.47
2022-07-29T05:12:06.195Z,99533.06
2022-07-29T05:13:46.346Z,99538.53
2022-07-29T05:15:19.826Z,99537.47
2022-07-29T05:16:57.738Z,99545.34
2022-07-29T05:18:30.569Z,99539.91
2022-07-29T05:20:02.723Z,99547.59
2022-07-29T05:21:36.116Z,99545.09
2022-07-29T05:23:08.742Z,99534.88
2022-07-29T05:24:41.846Z,99545.19
2022-07-29T05:26:16.555Z,99546.34
2022-07-29T05:27:48.787Z,99550.03
2022-07-29T05:29:43.054Z,99554.03
2022-07-29T05:31:15.926Z,99545.78
2022-07-29T05:32:48.313Z,99554.88
2022-07-29T05:34:20.933Z,99548.81
2022-07-29T05:35:56.243Z,99548.25
2022-07-29T05:37:32.207Z,99547.09
2022-07-29T05:39:04.463Z,99544.06
2022-07-29T05:40:36.718Z,99542.50
2022-07-29T05:42:09.970Z,99549.22
2022-07-29T05:43:42.166Z,99545.88
2022-07-29T05:45:14.275Z,99554.13
2022-07-29T05:46:46.567Z,99550.41
2022-07-29T05:48:21.059Z,99538.81
2022-07-29T05:49:53.441Z,99540.75
2022-07-29T05:51:25.606Z,99544.66
2022-07-29T05:52:57.874Z,99548.56
2022-07-29T05:54:30.322Z,99551.94
2022-07-29T05:56:08.505Z,99551.41
2022-07-29T05:57:40.633Z,99551.59
2022-07-29T05:59:17.963Z,99547.94
2022-07-29T06:00:51.057Z,99545.19
2022-07-29T06:02:23.274Z,99550.44
2022-07-29T06:03:55.779Z,99547.72
2022-07-29T06:05:28.161Z,99543.56
2022-07-29T06:07:00.656Z,99548.03
2022-07-29T06:08:34.738Z,99552.78
2022-07-29T06:10:06.946Z,99553.69
2022-07-29T06:11:39.119Z,99554.16
2022-07-29T06:13:11.583Z,99538.81
2022-07-29T06:14:43.824Z,99542.47
2022-07-29T06:16:16.069Z,99546.00
2022-07-29T06:18:02.567Z,99542.38
2022-07-29T06:19:36.185Z,99546.75
2022-07-29T06:21:09.732Z,99535.69
2022-07-29T06:22:42.147Z,99537.03
2022-07-29T06:24:15.210Z,99530.97
2022-07-29T06:25:48.002Z,99536.94
2022-07-29T06:27:20.177Z,99541.84
2022-07-29T06:28:52.319Z,99533.63
2022-07-29T06:30:24.837Z,99540.22
2022-07-29T06:31:57.565Z,99537.13
2022-07-29T06:33:30.236Z,99535.25
2022-07-29T06:35:32.931Z,99539.00
2022-07-29T06:36:54.666Z,99543.31
2022-07-29T06:38:30.829Z,99543.97
2022-07-29T06:40:25.335Z,99550.50
2022-07-29T06:41:57.512Z,99543.22
2022-07-29T06:43:35.139Z,99545.41
2022-07-29T06:45:09.377Z,99548.78
2022-07-29T06:46:42.040Z,99563.75
2022-07-29T06:48:14.238Z,99558.34
2022-07-29T06:49:46.733Z,99540.22
2022-07-29T06:51:21.737Z,99545.16
2022-07-29T06:52:56.053Z,99556.44
2022-07-29T06:54:28.310Z,99547.78
2022-07-29T06:56:01.577Z,99549.13
2022-07-29T06:57:34.036Z,99554.91
2022-07-29T06:59:06.722Z,99548.84
2022-07-29T07:00:39.120Z,99556.22
2022-07-29T07:02:11.668Z,99555.38
2022-07-29T07:03:43.869Z,99555.84
2022-07-29T07:05:16.311Z,99552.69
2022-07-29T07:06:48.487Z,99559.00
2022-07-29T07:08:21.969Z,99550.00
2022-07-29T07:09:54.101Z,99559.13
2022-07-29T07:11:26.390Z,99553.53
2022-07-29T07:12:58.599Z,99557.53
2022-07-29T07:14:31.090Z,99565.44
2022-07-29T07:16:03.635Z,99556.22
2022-07-29T07:17:35.886Z,99551.81
2022-07-29T07:19:08.040Z,99552.50
2022-07-29T07:20:40.665Z,99551.47
2022-07-29T07:22:12.875Z,99555.28
2022-07-29T07:23:45.044Z,99557.13
2022-07-29T07:25:18.442Z,99556.13
2022-07-29T07:26:51.043Z,99554.13
2022-07-29T07:28:24.479Z,99546.91
2022-07-29T07:29:57.786Z,99554.25
2022-07-29T07:31:30.021Z,99543.84
2022-07-29T07:33:02.625Z,99551.06
2022-07-29T07:34:34.935Z,99557.66
2022-07-29T07:36:07.325Z,99552.13
2022-07-29T07:37:41.560Z,99550.59
2022-07-29T07:39:14.311Z,99542.81
2022-07-29T07:40:47.535Z,99535.94
2022-07-29T07:42:20.214Z,99533.66
2022-07-29T07:43:52.362Z,99544.59
2022-07-29T07:45:25.237Z,99547.19
2022-07-29T07:46:57.501Z,99546.41
2022-07-29T07:48:37.165Z,99545.72
2022-07-29T07:50:13.805Z,99544.59
2022-07-29T07:51:51.192Z,99537.09
2022-07-29T07:53:23.500Z,99546.06
2022-07-29T07:54:55.728Z,99530.78
2022-07-29T07:56:30.704Z,99537.69
2022-07-29T07:58:07.396Z,99541.22
2022-07-29T07:59:39.873Z,99541.34
2022-07-29T08:01:14.893Z,99539.16
2022-07-29T08:02:47.252Z,99542.56
2022-07-29T08:04:23.592Z,99535.44
2022-07-29T08:05:59.543Z,99537.34
2022-07-29T08:07:32.410Z,99536.69
2022-07-29T08:09:27.761Z,99538.59
2022-07-29T08:10:57.757Z,99543.22
2022-07-29T08:12:29.984Z,99536.78
2022-07-29T08:14:02.613Z,99528.31
2022-07-29T08:15:35.016Z,99537.53
2022-07-29T08:17:07.662Z,99539.59
2022-07-29T08:18:41.195Z,99538.00
2022-07-29T08:20:13.523Z,99542.56
2022-07-29T08:21:45.647Z,99540.94
2022-07-29T08:23:20.145Z,99544.56
2022-07-29T08:24:56.353Z,99545.66
2022-07-29T08:26:28.643Z,99548.06
2022-07-29T08:28:00.788Z,99546.59
2022-07-29T08:29:33.477Z,99545.59
2022-07-29T08:31:11.470Z,99538.28
2022-07-29T08:32:53.614Z,99541.59
2022-07-29T08:34:27.814Z,99542.63
2022-07-29T08:36:00.649Z,99544.97
2022-07-29T08:37:32.831Z,99544.50
2022-07-29T08:39:05.061Z,99548.84
2022-07-29T08:40:37.334Z,99540.94
2022-07-29T08:42:10.665Z,99541.00
2022-07-29T08:43:42.914Z,99539.34
2022-07-29T08:45:15.275Z,99539.03
2022-07-29T08:46:47.464Z,99550.25
2022-07-29T08:48:21.578Z,99548.94
2022-07-29T08:49:53.753Z,99546.84
2022-07-29T08:51:26.563Z,99542.25
2022-07-29T08:53:00.071Z,99546.75
2022-07-29T08:54:33.160Z,99550.28
2022-07-29T08:56:05.742Z,99552.88
2022-07-29T08:57:39.685Z,99543.28
2022-07-29T08:59:25.701Z,99536.63
2022-07-29T09:00:58.436Z,99548.78
2022-07-29T09:02:36.958Z,99542.91
2022-07-29T09:04:11.879Z,99542.81
2022-07-29T09:05:47.957Z,99546.00
2022-07-29T09:07:20.929Z,99537.97
2022-07-29T09:08:53.082Z,99544.09
2022-07-29T09:10:25.269Z,99543.72
2022-07-29T09:11:57.786Z,99535.13
2022-07-29T09:13:30.546Z,99538.97
2022-07-29T09:15:02.856Z,99542.63
2022-07-29T09:16:53.833Z,99534.69
2022-07-29T09:18:40.408Z,99542.13
2022-07-29T09:20:14.324Z,99536.22
2022-07-29T09:22:03.526Z,99537.19
2022-07-29T09:23:36.182Z,99537.59
2022-07-29T09:25:08.509Z,99532.34
2022-07-29T09:26:42.316Z,99537.13
2022-07-29T09:28:15.530Z,99532.31
2022-07-29T09:29:48.121Z,99530.69
2022-07-29T09:31:27.506Z,99523.13
2022-07-29T09:33:03.902Z,99522.06
2022-07-29T09:34:36.233Z,99528.88
2022-07-29T09:36:11.910Z,99532.75
2022-07-29T09:37:45.089Z,99526.31
2022-07-29T09:39:28.265Z,99522.75
2022-07-29T09:41:06.007Z,99526.59
2022-07-29T09:42:38.867Z,99523.22
2022-07-29T09:44:12.801Z,99518.78
2022-07-29T09:45:45.294Z,99517.13
2022-07-29T09:47:19.150Z,99522.44
2022-07-29T09:49:10.251Z,99530.25
2022-07-29T09:50:44.974Z,99520.63
2022-07-29T09:52:17.794Z,99516.03
2022-07-29T09:53:51.429Z,99525.09
2022-07-29T09:55:26.308Z,99516.91
2022-07-29T09:56:59.000Z,99511.69
2022-07-29T09:58:31.750Z,99504.78
2022-07-29T10:00:09.188Z,99506.75
2022-07-29T10:01:44.484Z,99505.81
2022-07-29T10:03:17.547Z,99501.44
2022-07-29T10:04:50.219Z,99508.16
2022-07-29T10:06:22.419Z,99499.75
2022-07-29T10:07:57.351Z,99499.94
2022-07-29T10:09:30.033Z,99506.09
2022-07-29T10:11:12.413Z,99495.84
2022-07-29T10:12:52.592Z,99498.53
2022-07-29T10:14:24.917Z,99492.09
2022-07-29T10:15:57.178Z,99493.38
2022-07-29T10:17:32.581Z,99490.34
2022-07-29T10:19:04.735Z,99490.88
2022-07-29T10:20:37.000Z,99485.91
2022-07-29T10:22:10.714Z,99494.72
2022-07-29T10:23:47.014Z,99493.72
2022-07-29T10:25:19.861Z,99486.06
2022-07-29T10:26:52.623Z,99479.59
2022-07-29T10:28:25.888Z,99482.28
2022-07-29T10:29:59.191Z,99478.53
2022-07-29T10:31:39.907Z,99490.00
2022-07-29T10:33:15.805Z,99491.13
2022-07-29T10:35:06.837Z,99483.13
2022-07-29T10:36:46.549Z,99486.56
2022-07-29T10:38:18.771Z,99490.03
2022-07-29T10:40:29.998Z,99482.28
2022-07-29T10:42:14.829Z,99482.47
2022-07-29T10:43:52.644Z,99488.00
2022-07-29T10:45:26.867Z,99480.38
2022-07-29T10:47:00.135Z,99471.13
2022-07-29T10:48:32.748Z,99484.31
2022-07-29T10:50:05.886Z,99475.97
2022-07-29T10:52:00.805Z,99472.53
2022-07-29T10:53:52.499Z,99471.69
2022-07-29T10:55:34.515Z,99468.44
2022-07-29T10:57:53.026Z,99467.31
2022-07-29T10:59:21.527Z,99461.06
2022-07-29T11:02:52.344Z,99461.88
2022-07-29T11:04:43.554Z,99459.81
2022-07-29T11:06:15.874Z,99467.56
2022-07-29T11:08:06.427Z,99467.38
2022-07-29T11:09:39.745Z,99469.09
2022-07-29T11:13:13.430Z,99455.09
2022-07-29T11:15:00.283Z,99467.72
2022-07-29T11:16:52.571Z,99457.53
2022-07-29T11:18:24.732Z,99459.41
2022-07-29T11:20:16.246Z,99462.22
2022-07-29T11:21:54.124Z,99462.94
2022-07-29T11:23:39.804Z,99457.06
2022-07-29T11:25:16.854Z,99448.94
2022-07-29T11:27:09.505Z,99450.84
2022-07-29T11:28:51.051Z,99450.75
2022-07-29T11:30:45.637Z,99453.66
2022-07-29T11:32:23.160Z,99446.75
2022-07-29T11:33:56.950Z,99447.94
2022-07-29T11:35:38.406Z,99443.69
2022-07-29T11:37:12.621Z,99440.88
2022-07-29T11:38:45.194Z,99440.66
2022-07-29T11:40:18.410Z,99437.50
2022-07-29T11:41:51.662Z,99437.25
2022-07-29T11:43:46.136Z,99436.88
2022-07-29T11:47:12.933Z,99446.19
2022-07-29T11:48:47.193Z,99439.03
2022-07-29T11:50:35.155Z,99442.38
2022-07-29T11:52:10.914Z,99433.47
2022-07-29T11:53:48.185Z,99434.13
2022-07-29T11:55:32.359Z,99435.56
2022-07-29T11:57:08.250Z,99430.13
2022-07-29T11:58:41.112Z,99426.28
2022-07-29T12:00:21.455Z,99429.09
2022-07-29T12:04:03.065Z,99425.81
2022-07-29T12:05:38.090Z,99429.50
2022-07-29T12:07:34.606Z,99422.03
2022-07-29T12:09:08.836Z,99429.91
2022-07-29T12:10:47.851Z,99426.28
2022-07-29T12:12:21.310Z,99424.88
2022-07-29T12:13:56.815Z,99429.00
2022-07-29T12:15:46.386Z,99420.50
2022-07-29T12:17:32.734Z,99425.81
2022-07-29T12:19:05.691Z,99424.31
2022-07-29T12:20:38.086Z,99425.69
2022-07-29T12:22:10.664Z,99418.53
2022-07-29T12:23:53.170Z,99412.31
2022-07-29T12:25:33.750Z,99416.47
2022-07-29T12:27:06.335Z,99409.50
2022-07-29T12:28:39.747Z,99409.66
2022-07-29T12:30:17.763Z,99402.34
2022-07-29T12:31:55.052Z,99397.63
2022-07-29T12:33:30.664Z,99402.66
2022-07-29T12:35:07.060Z,99398.97
2022-07-29T12:36:39.700Z,99399.84
2022-07-29T12:38:12.713Z,99399.16
2022-07-29T12:39:45.100Z,99400.06
2022-07-29T12:41:17.345Z,99401.28
2022-07-29T12:43:10.302Z,99392.38
2022-07-29T12:44:49.753Z,99391.94
2022-07-29T12:46:24.253Z,99387.91
2022-07-29T12:47:56.739Z,99386.66
2022-07-29T12:49:28.920Z,99383.22
2022-07-29T12:51:02.381Z,99389.84
2022-07-29T12:52:35.110Z,99385.03
2022-07-29T12:54:09.124Z,99382.16
2022-07-29T12:55:42.581Z,99382.91
2022-07-29T12:57:20.145Z,99384.91
2022-07-29T12:58:52.806Z,99381.81
2022-07-29T13:00:25.579Z,99376.63
2022-07-29T13:02:00.696Z,99378.63
2022-07-29T13:03:56.882Z,99379.72
2022-07-29T13:05:49.438Z,99378.41
2022-07-29T13:07:55.449Z,99376.34
2022-07-29T13:09:20.580Z,99379.34
2022-07-29T13:10:53.131Z,99367.56
2022-07-29T13:12:25.388Z,99379.28
2022-07-29T13:14:05.694Z,99375.09
2022-07-29T13:15:40.438Z,99375.47
2022-07-29T13:17:16.801Z,99369.53
2022-07-29T13:18:49.112Z,99377.53
2022-07-29T13:20:25.446Z,99365.16
2022-07-29T13:21:57.800Z,99365.91
2022-07-29T13:23:30.780Z,99361.03
2022-07-29T13:25:03.997Z,99357.56
2022-07-29T13:26:40.686Z,99369.81
2022-07-29T13:28:12.902Z,99348.09
2022-07-29T13:29:45.700Z,99361.91
2022-07-29T13:31:18.058Z,99362.38
2022-07-29T13:32:50.735Z,99358.53
2022-07-29T13:34:25.259Z,99358.25
2022-07-29T13:36:00.396Z,99356.66
2022-07-29T13:37:35.281Z,99357.25
2022-07-29T13:39:07.487Z,99362.66
2022-07-29T13:40:39.686Z,99357.56
2022-07-29T13:42:14.310Z,99358.00
2022-07-29T13:43:46.669Z,99357.09
2022-07-29T13:45:22.345Z,99352.41
2022-07-29T13:46:54.577Z,99353.88
2022-07-29T13:48:27.069Z,99349.59
2022-07-29T13:49:59.342Z,99345.78
2022-07-29T13:51:31.516Z,99343.66
2022-07-29T13:53:03.680Z,99339.44
2022-07-29T13:54:42.802Z,99342.34
2022-07-29T13:56:15.084Z,99337.91
2022-07-29T13:57:47.213Z,99336.19
2022-07-29T13:59:19.652Z,99331.81
2022-07-29T14:00:52.239Z,99324.53
2022-07-29T14:02:25.648Z,99322.88
2022-07-29T14:03:58.390Z,99321.22
2022-07-29T14:05:30.777Z,99331.59
2022-07-29T14:07:03.789Z,99331.09
2022-07-29T14:08:36.245Z,99324.91
2022-07-29T14:10:08.977Z,99322.59
2022-07-29T14:11:41.367Z,99322.97
2022-07-29T14:13:24.432Z,99316.50
2022-07-29T14:14:57.821Z,99316.06
2022-07-29T14:16:30.174Z,99314.25
2022-07-29T14:18:02.422Z,99315.78
2022-07-29T14:19:39.205Z,99319.91
2022-07-29T14:21:11.665Z,99311.53
2022-07-29T14:22:45.126Z,99306.59
2022-07-29T14:24:21.667Z,99318.03
2022-07-29T14:25:57.938Z,99307.59
2022-07-29T14:27:37.381Z,99311.22
2022-07-29T14:29:10.731Z,99307.97
2022-07-29T14:30:42.967Z,99308.25
2022-07-29T14:32:16.078Z,99304.97
2022-07-29T14:33:49.254Z,99310.66
2022-07-29T14:35:21.628Z,99303.22
2022-07-29T14:36:56.558Z,99305.47
2022-07-29T14:38:29.023Z,99310.44
2022-07-29T14:40:04.163Z,99305.50
2022-07-29T14:41:36.430Z,99307.00
2022-07-29T14:43:08.752Z,99307.78
2022-07-29T14:44:42.569Z,99299.38
2022-07-29T14:46:15.109Z,99305.66
2022-07-29T14:47:47.338Z,99301.47
2022-07-29T14:49:19.589Z,99301.53
2022-07-29T14:50:52.142Z,99303.63
2022-07-29T14:52:24.333Z,99299.44
2022-07-29T14:53:57.385Z,99305.00
2022-07-29T14:55:30.495Z,99302.88
2022-07-29T14:57:03.039Z,99310.09
2022-07-29T14:58:35.249Z,99296.94
2022-07-29T15:00:08.535Z,99308.38
2022-07-29T15:01:40.808Z,99310.00
2022-07-29T15:03:13.589Z,99309.56
2022-07-29T15:04:56.207Z,99316.25
2022-07-29T15:06:28.449Z,99313.16
2022-07-29T15:08:00.660Z,99303.75
2022-07-29T15:09:33.313Z,99307.63
2022-07-29T15:11:12.366Z,99316.53
2022-07-29T15:12:44.735Z,99336.50
2022-07-29T15:14:16.930Z,99331.88
2022-07-29T15:15:50.306Z,99349.06
2022-07-29T15:17:22.520Z,99363.41
2022-07-29T15:18:57.726Z,99351.22
2022-07-29T15:20:33.531Z,99345.91
2022-07-29T15:22:06.465Z,99367.72
2022-07-29T15:23:39.673Z,99388.75
2022-07-29T15:25:11.958Z,99396.47
2022-07-29T15:26:44.218Z,99392.31
2022-07-29T15:28:17.084Z,99418.78
2022-07-29T15:29:49.338Z,99414.53
2022-07-29T15:31:21.513Z,99424.28
2022-07-29T15:32:55.921Z,99422.81
2022-07-29T15:34:30.357Z,99424.19
2022-07-29T15:36:02.653Z,99426.19
2022-07-29T15:37:48.532Z,99429.59
2022-07-29T15:39:22.063Z,99421.75
2022-07-29T15:40:54.511Z,99416.81
2022-07-29T15:42:26.725Z,99412.41
2022-07-29T15:43:58.889Z,99412.97
2022-07-29T15:45:38.387Z,99400.94
2022-07-29T15:47:12.882Z,99389.00
2022-07-29T15:48:48.691Z,99407.75
2022-07-29T15:50:21.027Z,99412.53
2022-07-29T15:51:56.923Z,99404.78
2022-07-29T15:53:32.112Z,99417.88
2022-07-29T15:55:05.618Z,99424.13
2022-07-29T15:56:37.780Z,99418.56
2022-07-29T15:58:09.976Z,99423.97
2022-07-29T15:59:42.512Z,99423.84
2022-07-29T16:01:14.860Z,99434.16
2022-07-29T16:02:47.091Z,99431.28
2022-07-29T16:04:19.534Z,99432.50
2022-07-29T16:05:52.151Z,99436.03
2022-07-29T16:07:24.475Z,99437.47
2022-07-29T16:09:03.698Z,99430.50
2022-07-29T16:10:35.913Z,99431.72
2022-07-29T16:12:14.895Z,99430.31
2022-07-29T16:13:47.777Z,99426.69
2022-07-29T16:15:20.226Z,99422.03
2022-07-29T16:16:52.563Z,99424.41
2022-07-29T16:18:30.400Z,99412.56
2022-07-29T16:20:02.974Z,99406.94
2022-07-29T16:21:35.986Z,99408.78
2022-07-29T16:23:12.342Z,99407.19
2022-07-29T16:24:44.814Z,99398.47
2022-07-29T16:26:17.649Z,99398.13
2022-07-29T16:27:51.967Z,99393.97
2022-07-29T16:29:24.327Z,99393.28
2022-07-29T16:30:57.366Z,99391.31
2022-07-29T16:32:30.818Z,99381.84
2022-07-29T16:34:03.069Z,99377.25
2022-07-29T16:35:39.101Z,99366.53
2022-07-29T16:37:12.622Z,99373.72
2022-07-29T16:38:47.339Z,99353.81
2022-07-29T16:40:19.571Z,99347.75
2022-07-29T16:41:51.738Z,99346.59
2022-07-29T16:43:24.152Z,99345.09
2022-07-29T16:44:56.286Z,99339.81
2022-07-29T16:46:29.327Z,99338.75
2022-07-29T16:48:02.816Z,99328.59
2022-07-29T16:49:36.361Z,99327.56
2022-07-29T16:51:08.593Z,99324.22
2022-07-29T16:52:40.946Z,99326.59
2022-07-29T16:54:13.157Z,99321.97
2022-07-29T16:55:45.816Z,99317.94
2022-07-29T16:57:18.150Z,99316.72
2022-07-29T16:58:50.318Z,99312.75
2022-07-29T17:00:23.793Z,99314.34
2022-07-29T17:01:56.600Z,99315.91
2022-07-29T17:03:28.874Z,99315.38
2022-07-29T17:05:00.963Z,99311.38
2022-07-29T17:06:37.187Z,99314.38
2022-07-29T17:08:09.684Z,99309.88
2022-07-29T17:09:42.532Z,99297.00
2022-07-29T17:11:15.663Z,99309.75
2022-07-29T17:12:47.858Z,99299.59
2022-07-29T17:15:55.455Z,99298.53
2022-07-29T17:17:39.394Z,99300.78
2022-07-29T17:19:22.458Z,99289.84
2022-07-29T17:20:54.592Z,99301.06
2022-07-29T17:22:27.090Z,99294.25
2022-07-29T17:23:59.501Z,99302.00
2022-07-29T17:25:32.038Z,99293.03
2022-07-29T17:27:04.246Z,99299.34
2022-07-29T17:28:36.424Z,99304.31
2022-07-29T17:30:08.797Z,99296.88
2022-07-29T17:31:41.528Z,99295.69
2022-07-29T17:33:13.774Z,99296.53
2022-07-29T17:34:45.991Z,99297.34
2022-07-29T17:36:24.268Z,99304.47
2022-07-29T17:37:56.843Z,99298.28
2022-07-29T17:39:29.064Z,99290.66
2022-07-29T17:41:01.353Z,99281.03
2022-07-29T17:42:40.054Z,99286.63
2022-07-29T17:44:12.647Z,99285.31
2022-07-29T17:45:50.165Z,99294.34
2022-07-29T17:47:23.004Z,99282.56
2022-07-29T17:48:56.224Z,99283.28
2022-07-29T17:50:28.729Z,99281.91
2022-07-29T17:52:01.255Z,99286.81
2022-07-29T17:53:33.525Z,99279.84
2022-07-29T17:55:06.235Z,99287.50
2022-07-29T17:56:38.877Z,99281.25
2022-07-29T17:58:11.396Z,99278.50
2022-07-29T17:59:43.563Z,99281.94
2022-07-29T18:01:16.281Z,99278.50
2022-07-29T18:02:49.342Z,99275.72
2022-07-29T18:04:23.606Z,99282.59
2022-07-29T18:05:55.938Z,99287.47
2022-07-29T18:07:28.098Z,99277.72
2022-07-29T18:09:00.804Z,99281.19
2022-07-29T18:10:33.197Z,99278.38
2022-07-29T18:12:07.831Z,99281.13
2022-07-29T18:13:40.114Z,99279.69
2022-07-29T18:15:12.646Z,99278.94
2022-07-29T18:16:46.908Z,99273.34
2022-07-29T18:18:19.294Z,99274.69
2022-07-29T18:19:52.923Z,99274.59
2022-07-29T18:21:42.691Z,99275.16
2022-07-29T18:23:17.627Z,99288.25
2022-07-29T18:24:49.841Z,99283.97
2022-07-29T18:26:22.053Z,99297.03
2022-07-29T18:28:03.066Z,99299.69
2022-07-29T18:29:35.248Z,99300.22
2022-07-29T18:31:07.513Z,99292.53
2022-07-29T18:32:39.754Z,99295.88
2022-07-29T18:34:12.297Z,99293.69
2022-07-29T18:35:44.806Z,99293.53
2022-07-29T18:37:17.166Z,99295.47
2022-07-29T18:38:49.349Z,99302.94
2022-07-29T18:40:25.371Z,99303.53
2022-07-29T18:41:57.781Z,99299.91
2022-07-29T18:43:32.845Z,99303.28